createdAt,value
2023-01-26T00:01:03.083Z,2.30
2023-01-26T00:03:39.026Z,2.30
2023-01-26T00:06:12.981Z,2.30
2023-01-26T00:08:49.859Z,2.30
2023-01-26T00:11:29.534Z,2.30
2023-01-26T00:14:11.269Z,2.20
2023-01-26T00:16:43.180Z,2.30
2023-01-26T00:19:15.067Z,2.30
2023-01-26T00:21:45.293Z,2.30
2023-01-26T00:24:18.048Z,2.20
2023-01-26T00:27:02.172Z,2.30
2023-01-26T00:29:38.421Z,2.20
2023-01-26T00:32:11.857Z,2.20
2023-01-26T00:34:45.749Z,2.30
2023-01-26T00:37:13.185Z,2.30
2023-01-26T00:39:40.859Z,2.30
2023-01-26T00:42:22.730Z,2.30
2023-01-26T00:44:52.774Z,2.30
2023-01-26T00:47:22.513Z,2.30
2023-01-26T00:49:55.175Z,2.30
2023-01-26T00:52:29.128Z,2.30
2023-01-26T00:54:58.650Z,2.30
2023-01-26T00:57:33.694Z,2.30
2023-01-26T01:00:05.860Z,2.30
2023-01-26T01:02:36.892Z,2.30
2023-01-26T01:05:05.804Z,2.30
2023-01-26T01:07:39.528Z,2.20
2023-01-26T01:10:14.960Z,2.20
2023-01-26T01:12:45.555Z,2.30
2023-01-26T01:15:16.242Z,2.20
2023-01-26T01:17:51.215Z,2.20
2023-01-26T01:20:19.150Z,2.20
2023-01-26T01:22:56.387Z,2.20
2023-01-26T01:25:29.684Z,2.10
2023-01-26T01:28:06.864Z,2.10
2023-01-26T01:30:37.511Z,2.00
2023-01-26T01:33:10.991Z,1.90
2023-01-26T01:35:58.447Z,2.00
2023-01-26T01:38:36.350Z,2.00
2023-01-26T01:41:04.499Z,1.90
2023-01-26T01:43:36.591Z,2.00
2023-01-26T01:46:08.293Z,2.00
2023-01-26T01:48:36.124Z,1.90
2023-01-26T01:51:08.661Z,1.90
2023-01-26T01:53:38.605Z,2.00
2023-01-26T01:56:17.226Z,2.00
2023-01-26T01:58:44.990Z,2.00
2023-01-26T02:01:16.307Z,2.00
2023-01-26T02:03:50.015Z,2.00
2023-01-26T02:06:26.285Z,2.10
2023-01-26T02:09:02.957Z,2.00
2023-01-26T02:11:30.648Z,2.00
2023-01-26T02:14:03.731Z,2.00
2023-01-26T02:16:36.824Z,2.00
2023-01-26T02:19:10.294Z,2.10
2023-01-26T02:21:47.097Z,2.10
2023-01-26T02:24:30.633Z,2.10
2023-01-26T02:26:58.941Z,2.10
2023-01-26T02:29:33.215Z,2.10
2023-01-26T02:32:02.936Z,2.10
2023-01-26T02:34:34.784Z,2.20
2023-01-26T02:37:09.847Z,2.20
2023-01-26T02:39:56.066Z,2.10
2023-01-26T02:42:43.228Z,2.20
2023-01-26T02:45:24.207Z,2.20
2023-01-26T02:48:04.861Z,2.20
2023-01-26T02:50:41.556Z,2.20
2023-01-26T02:53:11.431Z,2.20
2023-01-26T02:55:45.884Z,2.20
2023-01-26T02:58:20.005Z,2.20
2023-01-26T03:00:48.701Z,2.20
2023-01-26T03:03:21.640Z,2.20
2023-01-26T03:05:54.362Z,2.20
2023-01-26T03:08:29.868Z,2.20
2023-01-26T03:11:02.548Z,2.30
2023-01-26T03:13:36.564Z,2.30
2023-01-26T03:16:07.396Z,2.30
2023-01-26T03:19:00.001Z,2.30
2023-01-26T03:21:46.496Z,2.20
2023-01-26T03:24:33.256Z,2.20
2023-01-26T03:27:25.042Z,2.30
2023-01-26T03:30:02.842Z,2.30
2023-01-26T03:32:34.377Z,2.20
2023-01-26T03:35:09.787Z,2.20
2023-01-26T03:37:46.560Z,2.20
2023-01-26T03:40:49.542Z,2.30
2023-01-26T03:43:38.853Z,2.20
2023-01-26T03:46:26.285Z,2.30
2023-01-26T03:49:14.504Z,2.20
2023-01-26T03:52:04.981Z,2.30
2023-01-26T03:54:52.920Z,2.30
2023-01-26T03:57:25.337Z,2.20
2023-01-26T04:00:01.637Z,2.30
2023-01-26T04:02:47.987Z,2.20
2023-01-26T04:05:40.011Z,2.30
2023-01-26T04:08:29.196Z,2.30
2023-01-26T04:11:01.907Z,2.30
2023-01-26T04:13:51.290Z,2.30
2023-01-26T04:16:45.310Z,2.30
2023-01-26T04:19:35.718Z,2.30
2023-01-26T04:22:16.588Z,2.30
2023-01-26T04:24:49.793Z,2.30
2023-01-26T04:27:23.251Z,2.30
2023-01-26T04:29:53.685Z,2.30
2023-01-26T04:32:26.646Z,2.30
2023-01-26T04:35:01.013Z,2.30
2023-01-26T04:37:42.716Z,2.30
2023-01-26T04:40:25.619Z,2.30
2023-01-26T04:43:05.375Z,2.30
2023-01-26T04:45:43.017Z,2.30
2023-01-26T04:48:13.999Z,2.30
2023-01-26T04:50:50.149Z,2.30
2023-01-26T04:53:25.861Z,2.30
2023-01-26T04:56:13.820Z,2.30
2023-01-26T04:58:56.356Z,2.20
2023-01-26T05:01:33.697Z,2.20
2023-01-26T05:04:05.464Z,2.20
2023-01-26T05:06:40.883Z,2.20
2023-01-26T05:09:22.509Z,2.30
2023-01-26T05:12:41.581Z,2.30
2023-01-26T05:15:33.693Z,2.30
2023-01-26T05:18:33.670Z,2.40
2023-01-26T05:21:20.686Z,2.40
2023-01-26T05:23:54.290Z,2.30
2023-01-26T05:26:41.864Z,2.30
2023-01-26T05:29:17.463Z,2.30
2023-01-26T05:31:52.109Z,2.30
2023-01-26T05:34:29.489Z,2.30
2023-01-26T05:37:04.696Z,2.20
2023-01-26T05:39:35.250Z,2.20
2023-01-26T05:42:10.493Z,2.30
2023-01-26T05:47:51.032Z,2.30
2023-01-26T05:50:19.516Z,2.30
2023-01-26T05:53:07.535Z,2.20
2023-01-26T05:55:42.537Z,2.20
2023-01-26T05:58:13.621Z,2.10
2023-01-26T06:00:42.621Z,2.00
2023-01-26T06:03:19.889Z,2.00
2023-01-26T06:05:55.418Z,2.10
2023-01-26T06:08:40.119Z,2.10
2023-01-26T06:11:40.154Z,2.10
2023-01-26T06:14:24.576Z,2.20
2023-01-26T06:16:54.919Z,2.20
2023-01-26T06:19:29.616Z,2.20
2023-01-26T06:22:05.036Z,2.20
2023-01-26T06:24:41.139Z,2.10
2023-01-26T06:27:19.236Z,2.10
2023-01-26T06:29:50.785Z,2.10
2023-01-26T06:32:22.898Z,2.10
2023-01-26T06:35:02.524Z,2.10
2023-01-26T06:37:36.456Z,2.00
2023-01-26T06:40:05.113Z,2.10
2023-01-26T06:42:50.616Z,2.10
2023-01-26T06:45:26.576Z,2.10
2023-01-26T06:48:10.581Z,2.10
2023-01-26T06:50:45.880Z,2.10
2023-01-26T06:53:40.192Z,2.00
2023-01-26T06:56:42.513Z,2.10
2023-01-26T06:59:49.813Z,2.10
2023-01-26T07:02:48.455Z,2.00
2023-01-26T07:08:10.241Z,1.90
2023-01-26T07:10:47.875Z,1.90
2023-01-26T07:13:20.666Z,1.80
2023-01-26T07:16:11.848Z,1.80
2023-01-26T07:18:50.776Z,1.90
2023-01-26T07:21:26.364Z,2.00
2023-01-26T07:23:59.895Z,2.00
2023-01-26T07:26:30.235Z,2.00
2023-01-26T07:29:01.719Z,2.00
2023-01-26T07:31:36.950Z,2.10
2023-01-26T07:34:13.033Z,2.10
2023-01-26T07:36:41.054Z,2.20
2023-01-26T07:39:16.280Z,2.10
2023-01-26T07:41:49.080Z,2.10
2023-01-26T07:44:50.741Z,2.10
2023-01-26T07:47:24.031Z,2.10
2023-01-26T07:49:54.377Z,2.10
2023-01-26T07:52:23.305Z,2.00
2023-01-26T07:54:56.879Z,1.90
2023-01-26T07:57:33.658Z,2.00
2023-01-26T08:00:05.833Z,1.90
2023-01-26T08:02:44.585Z,1.90
2023-01-26T08:05:29.337Z,1.80
2023-01-26T08:08:10.355Z,1.90
2023-01-26T08:10:40.220Z,1.80
2023-01-26T08:13:12.852Z,1.80
2023-01-26T08:15:45.777Z,1.80
2023-01-26T08:18:16.964Z,1.90
2023-01-26T08:20:52.723Z,1.90
2023-01-26T08:23:28.916Z,1.70
2023-01-26T08:26:03.569Z,1.70
2023-01-26T08:28:33.399Z,1.70
2023-01-26T08:31:08.787Z,1.70
2023-01-26T08:33:39.582Z,1.80
2023-01-26T08:36:17.075Z,1.80
2023-01-26T08:38:47.037Z,1.80
2023-01-26T08:41:22.493Z,1.90
2023-01-26T08:43:51.677Z,1.80
2023-01-26T08:46:19.971Z,1.70
2023-01-26T08:48:51.232Z,1.70
2023-01-26T08:51:22.141Z,1.70
2023-01-26T08:53:50.211Z,1.80
2023-01-26T08:56:17.893Z,1.70
2023-01-26T08:58:54.644Z,1.70
2023-01-26T09:01:28.038Z,1.80
2023-01-26T09:04:07.011Z,1.80
2023-01-26T09:06:40.537Z,1.80
2023-01-26T09:09:25.331Z,1.80
2023-01-26T09:12:01.171Z,1.90
2023-01-26T09:17:20.478Z,1.80
2023-01-26T09:19:51.081Z,1.90
2023-01-26T09:22:34.236Z,1.80
2023-01-26T09:25:08.584Z,1.80
2023-01-26T09:27:44.809Z,1.80
2023-01-26T09:30:12.652Z,1.80
2023-01-26T09:32:48.432Z,1.90
2023-01-26T09:35:19.825Z,1.90
2023-01-26T09:37:57.314Z,1.90
2023-01-26T09:40:50.253Z,1.90
2023-01-26T09:43:46.699Z,1.90
2023-01-26T09:46:51.830Z,1.90
2023-01-26T09:49:40.588Z,1.90
2023-01-26T09:55:26.461Z,1.90
2023-01-26T09:58:13.130Z,1.90
2023-01-26T10:00:55.906Z,1.90
2023-01-26T10:03:47.532Z,1.80
2023-01-26T10:06:52.532Z,1.80
2023-01-26T10:09:51.587Z,1.70
2023-01-26T10:12:39.205Z,1.80
2023-01-26T10:15:28.931Z,1.70
2023-01-26T10:18:10.023Z,1.70
2023-01-26T10:20:42.735Z,1.70
2023-01-26T10:23:35.570Z,1.70
2023-01-26T10:26:16.331Z,1.80
2023-01-26T10:28:52.601Z,1.70
2023-01-26T10:31:29.181Z,1.70
2023-01-26T10:34:04.646Z,1.70
2023-01-26T10:36:37.802Z,1.70
2023-01-26T10:39:09.768Z,1.70
2023-01-26T10:41:44.651Z,1.70
2023-01-26T10:44:32.443Z,1.70
2023-01-26T10:47:34.756Z,1.80
2023-01-26T10:50:38.502Z,1.70
2023-01-26T10:53:17.679Z,1.80
2023-01-26T10:56:10.747Z,1.90
2023-01-26T10:58:47.107Z,1.90
2023-01-26T11:01:21.244Z,1.90
2023-01-26T11:04:07.346Z,1.90
2023-01-26T11:06:38.666Z,1.80
2023-01-26T11:09:17.922Z,1.90
2023-01-26T11:12:00.779Z,1.90
2023-01-26T11:14:28.668Z,1.90
2023-01-26T11:17:02.948Z,1.90
2023-01-26T11:23:03.323Z,2.00
2023-01-26T11:25:46.966Z,2.00
2023-01-26T11:28:42.839Z,2.10
2023-01-26T11:31:42.481Z,2.10
2023-01-26T11:34:43.047Z,2.00
2023-01-26T11:37:19.845Z,2.00
2023-01-26T11:40:13.128Z,2.10
2023-01-26T11:43:05.015Z,2.10
2023-01-26T11:45:51.704Z,2.10
2023-01-26T11:48:45.566Z,2.10
2023-01-26T11:51:36.453Z,2.20
2023-01-26T11:54:36.934Z,2.20
2023-01-26T11:57:23.784Z,2.10
2023-01-26T12:00:04.606Z,2.10
2023-01-26T12:02:42.692Z,2.10
2023-01-26T12:05:37.464Z,2.10
2023-01-26T12:08:17.487Z,2.10
2023-01-26T12:10:54.197Z,2.20
2023-01-26T12:13:38.019Z,2.30
2023-01-26T12:16:37.440Z,2.30
2023-01-26T12:19:41.763Z,2.30
2023-01-26T12:22:39.906Z,2.40
2023-01-26T12:25:29.573Z,2.40
2023-01-26T12:28:25.413Z,2.30
2023-01-26T12:31:00.752Z,2.30
2023-01-26T12:33:38.207Z,2.30
2023-01-26T12:39:11.721Z,2.30
2023-01-26T12:41:47.621Z,2.30
2023-01-26T12:44:35.040Z,2.40
2023-01-26T12:47:21.877Z,2.40
2023-01-26T12:49:56.047Z,2.50
2023-01-26T12:52:22.942Z,2.40
2023-01-26T12:54:49.818Z,2.40
2023-01-26T12:57:20.585Z,2.40
2023-01-26T12:59:49.203Z,2.40
2023-01-26T13:02:19.560Z,2.40
2023-01-26T13:04:49.107Z,2.40
2023-01-26T13:07:35.525Z,2.40
2023-01-26T13:10:09.387Z,2.50
2023-01-26T13:12:50.362Z,2.50
2023-01-26T13:15:18.591Z,2.50
2023-01-26T13:17:48.972Z,2.50
2023-01-26T13:20:23.941Z,2.50
2023-01-26T13:22:51.942Z,2.50
2023-01-26T13:25:31.681Z,2.50
2023-01-26T13:28:03.148Z,2.50
2023-01-26T13:30:38.863Z,2.50
2023-01-26T13:33:12.097Z,2.40
2023-01-26T13:35:39.661Z,2.50
2023-01-26T13:38:26.054Z,2.50
2023-01-26T13:40:56.035Z,2.40
2023-01-26T13:43:28.972Z,2.40
2023-01-26T13:46:00.638Z,2.30
2023-01-26T13:48:57.138Z,2.40
2023-01-26T13:51:28.815Z,2.40
2023-01-26T13:54:01.760Z,2.50
2023-01-26T13:56:37.535Z,2.50
2023-01-26T13:59:07.689Z,2.50
2023-01-26T14:01:42.905Z,2.50
2023-01-26T14:04:12.927Z,2.50
2023-01-26T14:06:42.461Z,2.60
2023-01-26T14:09:12.127Z,2.60
2023-01-26T14:11:39.863Z,2.50
2023-01-26T14:14:08.196Z,2.50
2023-01-26T14:16:37.616Z,2.60
2023-01-26T14:19:16.296Z,2.60
2023-01-26T14:21:48.208Z,2.60
2023-01-26T14:24:15.761Z,2.60
2023-01-26T14:26:43.191Z,2.60
2023-01-26T14:29:19.115Z,2.60
2023-01-26T14:31:47.134Z,2.60
2023-01-26T14:34:18.351Z,2.50
2023-01-26T14:36:45.666Z,2.50
2023-01-26T14:39:20.743Z,2.50
2023-01-26T14:41:48.724Z,2.50
2023-01-26T14:44:16.122Z,2.40
2023-01-26T14:47:01.214Z,2.40
2023-01-26T14:49:43.336Z,2.40
2023-01-26T14:52:19.710Z,2.30
2023-01-26T14:54:48.350Z,2.40
2023-01-26T14:57:19.855Z,2.40
2023-01-26T14:59:51.969Z,2.30
2023-01-26T15:02:21.722Z,2.30
2023-01-26T15:05:18.479Z,2.30
2023-01-26T15:07:48.650Z,2.40
2023-01-26T15:10:32.689Z,2.40
2023-01-26T15:12:59.605Z,2.40
2023-01-26T15:15:28.106Z,2.40
2023-01-26T15:18:06.264Z,2.40
2023-01-26T15:20:34.089Z,2.40
2023-01-26T15:23:01.139Z,2.50
2023-01-26T15:25:29.577Z,2.40
2023-01-26T15:27:58.781Z,2.40
2023-01-26T15:30:28.008Z,2.40
2023-01-26T15:32:55.407Z,2.40
2023-01-26T15:35:24.348Z,2.40
2023-01-26T15:37:59.977Z,2.40
2023-01-26T15:40:26.904Z,2.30
2023-01-26T15:43:11.762Z,2.30
2023-01-26T15:45:39.741Z,2.30
2023-01-26T15:48:07.183Z,2.30
2023-01-26T15:50:34.184Z,2.30
2023-01-26T15:53:01.182Z,2.30
2023-01-26T15:55:30.944Z,2.30
2023-01-26T15:57:58.937Z,2.30
2023-01-26T16:00:26.179Z,2.30
2023-01-26T16:02:53.274Z,2.20
2023-01-26T16:05:21.467Z,2.20
2023-01-26T16:07:49.337Z,2.20
2023-01-26T16:10:19.297Z,2.20
2023-01-26T16:12:47.686Z,2.10
2023-01-26T16:15:22.956Z,2.20
2023-01-26T16:17:50.440Z,2.20
2023-01-26T16:20:17.907Z,2.20
2023-01-26T16:22:44.801Z,2.20
2023-01-26T16:25:39.909Z,2.10
2023-01-26T16:28:07.546Z,2.20
2023-01-26T16:30:34.884Z,2.10
2023-01-26T16:33:01.771Z,2.10
2023-01-26T16:35:29.452Z,2.10
2023-01-26T16:37:56.755Z,2.10
2023-01-26T16:40:23.969Z,2.10
2023-01-26T16:42:51.661Z,2.10
2023-01-26T16:45:20.269Z,2.00
2023-01-26T16:47:52.617Z,2.10
2023-01-26T16:50:20.060Z,2.00
2023-01-26T16:52:47.632Z,2.10
2023-01-26T16:55:16.550Z,2.10
2023-01-26T16:57:47.561Z,2.00
2023-01-26T17:00:20.960Z,2.00
2023-01-26T17:02:50.562Z,1.90
2023-01-26T17:05:18.931Z,1.90
2023-01-26T17:07:46.370Z,1.90
2023-01-26T17:10:14.917Z,1.90
2023-01-26T17:12:41.939Z,1.90
2023-01-26T17:15:11.005Z,1.80
2023-01-26T17:17:38.979Z,1.80
2023-01-26T17:20:18.428Z,1.80
2023-01-26T17:22:47.103Z,1.80
2023-01-26T17:25:17.083Z,1.80
2023-01-26T17:27:48.471Z,1.80
2023-01-26T17:30:16.884Z,1.80
2023-01-26T17:32:44.720Z,1.70
2023-01-26T17:35:12.371Z,1.70
2023-01-26T17:37:40.276Z,1.70
2023-01-26T17:40:08.340Z,1.70
2023-01-26T17:42:36.405Z,1.70
2023-01-26T17:45:04.485Z,1.70
2023-01-26T17:47:32.448Z,1.70
2023-01-26T17:49:59.941Z,1.70
2023-01-26T17:52:27.494Z,1.70
2023-01-26T17:54:54.780Z,1.80
2023-01-26T17:57:22.271Z,1.80
2023-01-26T17:59:49.343Z,1.80
2023-01-26T18:02:18.394Z,1.70
2023-01-26T18:04:45.677Z,1.70
2023-01-26T18:07:13.522Z,1.70
2023-01-26T18:09:40.755Z,1.80
2023-01-26T18:12:10.159Z,1.80
2023-01-26T18:14:37.728Z,1.80
2023-01-26T18:17:05.107Z,1.80
2023-01-26T18:19:33.127Z,1.80
2023-01-26T18:22:00.427Z,1.80
2023-01-26T18:24:28.325Z,1.80
2023-01-26T18:26:55.606Z,1.80
2023-01-26T18:29:23.636Z,1.80
2023-01-26T18:31:51.372Z,1.80
2023-01-26T18:34:19.450Z,1.70
2023-01-26T18:36:47.550Z,1.80
2023-01-26T18:39:17.114Z,1.80
2023-01-26T18:41:48.905Z,1.80
2023-01-26T18:44:19.188Z,1.70
2023-01-26T18:46:46.530Z,1.70
2023-01-26T18:49:16.224Z,1.80
2023-01-26T18:51:53.569Z,1.80
2023-01-26T18:54:21.901Z,1.70
2023-01-26T18:56:50.738Z,1.70
2023-01-26T18:59:19.268Z,1.70
2023-01-26T19:01:47.267Z,1.60
2023-01-26T19:04:18.095Z,1.70
2023-01-26T19:06:50.191Z,1.70
2023-01-26T19:09:18.051Z,1.80
2023-01-26T19:11:47.983Z,1.80
2023-01-26T19:14:16.704Z,1.80
2023-01-26T19:16:48.832Z,1.70
2023-01-26T19:19:17.691Z,1.70
2023-01-26T19:21:47.299Z,1.70
2023-01-26T19:24:15.639Z,1.70
2023-01-26T19:26:43.616Z,1.70
2023-01-26T19:29:24.401Z,1.60
2023-01-26T19:31:59.540Z,1.60
2023-01-26T19:34:46.427Z,1.60
2023-01-26T19:37:18.073Z,1.60
2023-01-26T19:39:49.987Z,1.60
2023-01-26T19:42:18.697Z,1.60
2023-01-26T19:44:47.172Z,1.50
2023-01-26T19:47:17.375Z,1.60
2023-01-26T19:49:45.144Z,1.60
2023-01-26T19:52:12.729Z,1.60
2023-01-26T19:54:42.058Z,1.60
2023-01-26T19:57:11.210Z,1.70
2023-01-26T19:59:40.146Z,1.70
2023-01-26T20:02:10.003Z,1.60
2023-01-26T20:04:39.364Z,1.60
2023-01-26T20:07:08.245Z,1.60
2023-01-26T20:09:36.741Z,1.60
2023-01-26T20:12:10.120Z,1.60
2023-01-26T20:14:39.117Z,1.50
2023-01-26T20:17:10.041Z,1.50
2023-01-26T20:19:38.468Z,1.50
2023-01-26T20:22:10.100Z,1.50
2023-01-26T20:24:39.944Z,1.50
2023-01-26T20:27:08.447Z,1.60
2023-01-26T20:29:36.556Z,1.60
2023-01-26T20:32:05.618Z,1.50
2023-01-26T20:34:36.130Z,1.50
2023-01-26T20:37:04.728Z,1.50
2023-01-26T20:39:32.705Z,1.50
2023-01-26T20:42:01.749Z,1.50
2023-01-26T20:44:30.786Z,1.60
2023-01-26T20:46:59.220Z,1.60
2023-01-26T20:49:29.264Z,1.60
2023-01-26T20:51:57.674Z,1.50
2023-01-26T20:54:25.659Z,1.50
2023-01-26T20:56:52.787Z,1.50
2023-01-26T20:59:23.361Z,1.50
2023-01-26T21:01:53.193Z,1.40
2023-01-26T21:04:21.696Z,1.30
2023-01-26T21:06:49.999Z,1.30
2023-01-26T21:09:17.409Z,1.30
2023-01-26T21:11:46.885Z,1.40
2023-01-26T21:14:14.344Z,1.40
2023-01-26T21:16:42.537Z,1.50
2023-01-26T21:19:11.551Z,1.50
2023-01-26T21:21:39.771Z,1.50
2023-01-26T21:24:08.748Z,1.60
2023-01-26T21:26:36.004Z,1.50
2023-01-26T21:29:05.092Z,1.30
2023-01-26T21:31:33.993Z,1.40
2023-01-26T21:34:02.085Z,1.40
2023-01-26T21:36:34.496Z,1.50
2023-01-26T21:39:02.447Z,1.50
2023-01-26T21:41:49.269Z,1.50
2023-01-26T21:44:18.190Z,1.50
2023-01-26T21:46:46.929Z,1.50
2023-01-26T21:49:14.757Z,1.60
2023-01-26T21:52:00.516Z,1.50
2023-01-26T21:54:29.673Z,1.50
2023-01-26T21:56:57.432Z,1.50
2023-01-26T21:59:26.347Z,1.50
2023-01-26T22:01:54.517Z,1.50
2023-01-26T22:04:29.575Z,1.50
2023-01-26T22:06:57.370Z,1.40
2023-01-26T22:09:24.348Z,1.40
2023-01-26T22:11:51.968Z,1.50
2023-01-26T22:14:20.380Z,1.50
2023-01-26T22:16:47.535Z,1.40
2023-01-26T22:19:14.459Z,1.40
2023-01-26T22:21:44.347Z,1.40
2023-01-26T22:24:13.143Z,1.40
2023-01-26T22:26:40.726Z,1.50
2023-01-26T22:29:09.800Z,1.50
2023-01-26T22:31:37.634Z,1.50
2023-01-26T22:34:05.192Z,1.50
2023-01-26T22:36:32.208Z,1.50
2023-01-26T22:38:59.943Z,1.50
2023-01-26T22:41:29.429Z,1.50
2023-01-26T22:43:57.645Z,1.40
2023-01-26T22:46:25.651Z,1.50
2023-01-26T22:48:52.877Z,1.50
2023-01-26T22:51:21.611Z,1.50
2023-01-26T22:53:49.239Z,1.50
2023-01-26T22:56:16.708Z,1.50
2023-01-26T22:58:56.964Z,1.50
2023-01-26T23:01:25.523Z,1.40
2023-01-26T23:03:54.309Z,1.40
2023-01-26T23:06:22.089Z,1.40
2023-01-26T23:08:50.002Z,1.30
2023-01-26T23:11:22.157Z,1.40
2023-01-26T23:13:50.066Z,1.30
2023-01-26T23:16:17.418Z,1.30
2023-01-26T23:18:45.206Z,1.30
2023-01-26T23:21:12.655Z,1.40
2023-01-26T23:23:41.929Z,1.40
2023-01-26T23:26:09.245Z,1.40
2023-01-26T23:28:38.245Z,1.50
2023-01-26T23:31:05.241Z,1.50
2023-01-26T23:33:33.497Z,1.50
2023-01-26T23:36:00.549Z,1.40
2023-01-26T23:38:28.398Z,1.50
2023-01-26T23:40:56.119Z,1.40
2023-01-26T23:43:24.187Z,1.40
2023-01-26T23:45:52.692Z,1.40
2023-01-26T23:48:19.941Z,1.30
2023-01-26T23:50:46.977Z,1.30
2023-01-26T23:53:14.049Z,1.40
2023-01-26T23:55:42.465Z,1.30
2023-01-26T23:58:10.281Z,1.30
